createdAt,value
2022-11-11T00:01:12.977Z,102865.38
2022-11-11T00:03:39.880Z,102865.56
2022-11-11T00:06:10.675Z,102865.38
2022-11-11T00:08:37.231Z,102859.38
2022-11-11T00:11:09.835Z,102859.72
2022-11-11T00:13:38.271Z,102861.69
2022-11-11T00:16:10.306Z,102860.88
2022-11-11T00:18:56.013Z,102860.56
2022-11-11T00:21:41.023Z,102858.94
2022-11-11T00:24:38.140Z,102859.25
2022-11-11T00:27:05.658Z,102873.56
2022-11-11T00:29:32.324Z,102868.03
2022-11-11T00:32:17.346Z,102871.81
2022-11-11T00:35:04.016Z,102872.78
2022-11-11T00:37:30.525Z,102871.47
2022-11-11T00:39:57.130Z,102861.72
2022-11-11T00:42:23.756Z,102858.94
2022-11-11T00:44:50.390Z,102862.84
2022-11-11T00:47:35.957Z,102863.34
2022-11-11T00:50:22.967Z,102873.59
2022-11-11T00:52:49.588Z,102877.81
2022-11-11T00:55:16.413Z,102867.72
2022-11-11T00:57:43.009Z,102881.25
2022-11-11T01:00:10.191Z,102879.28
2022-11-11T01:02:36.910Z,102880.09
2022-11-11T01:05:03.852Z,102878.94
2022-11-11T01:07:30.485Z,102874.88
2022-11-11T01:09:57.315Z,102893.56
2022-11-11T01:12:23.969Z,102895.53
2022-11-11T01:14:50.587Z,102886.59
2022-11-11T01:17:17.208Z,102892.75
2022-11-11T01:19:43.857Z,102892.94
2022-11-11T01:22:11.472Z,102898.16
2022-11-11T01:24:38.729Z,102894.56
2022-11-11T01:27:05.483Z,102880.75
2022-11-11T01:29:32.016Z,102878.47
2022-11-11T01:31:58.573Z,102879.13
2022-11-11T01:34:25.299Z,102862.22
2022-11-11T01:36:51.826Z,102875.84
2022-11-11T01:39:18.416Z,102863.03
2022-11-11T01:41:45.318Z,102867.75
2022-11-11T01:44:11.908Z,102861.38
2022-11-11T01:46:45.883Z,102857.34
2022-11-11T01:49:42.725Z,102863.34
2022-11-11T01:52:15.352Z,102860.56
2022-11-11T01:54:54.558Z,102854.56
2022-11-11T01:57:33.367Z,102856.00
2022-11-11T02:00:06.131Z,102848.38
2022-11-11T02:02:41.865Z,102854.38
2022-11-11T02:05:32.593Z,102848.03
2022-11-11T02:08:05.113Z,102844.31
2022-11-11T02:10:34.032Z,102852.09
2022-11-11T02:13:19.531Z,102852.59
2022-11-11T02:15:46.733Z,102841.53
2022-11-11T02:18:13.582Z,102863.97
2022-11-11T02:20:44.647Z,102871.75
2022-11-11T02:23:24.658Z,102859.75
2022-11-11T02:25:54.509Z,102874.38
2022-11-11T02:28:22.597Z,102861.84
2022-11-11T02:30:49.220Z,102875.34
2022-11-11T02:33:15.693Z,102865.25
2022-11-11T02:35:46.576Z,102864.28
2022-11-11T02:38:13.771Z,102857.59
2022-11-11T02:41:03.758Z,102860.84
2022-11-11T02:43:34.188Z,102856.16
2022-11-11T02:46:03.041Z,102854.66
2022-11-11T02:48:30.141Z,102857.75
2022-11-11T02:50:57.197Z,102855.31
2022-11-11T02:53:24.391Z,102863.09
2022-11-11T02:55:51.224Z,102864.25
2022-11-11T02:58:18.169Z,102858.25
2022-11-11T03:00:44.744Z,102839.84
2022-11-11T03:03:11.545Z,102846.22
2022-11-11T03:05:38.235Z,102853.50
2022-11-11T03:08:05.897Z,102846.88
2022-11-11T03:10:32.513Z,102841.31
2022-11-11T03:12:59.149Z,102850.44
2022-11-11T03:15:25.766Z,102850.56
2022-11-11T03:17:52.434Z,102845.56
2022-11-11T03:20:41.216Z,102836.72
2022-11-11T03:23:13.365Z,102849.13
2022-11-11T03:25:42.628Z,102857.06
2022-11-11T03:28:14.476Z,102843.25
2022-11-11T03:30:43.674Z,102836.09
2022-11-11T03:33:10.668Z,102854.63
2022-11-11T03:35:37.937Z,102845.38
2022-11-11T03:38:23.632Z,102836.09
2022-11-11T03:40:53.343Z,102836.72
2022-11-11T03:43:22.110Z,102851.53
2022-11-11T03:45:49.199Z,102846.66
2022-11-11T03:48:16.014Z,102851.03
2022-11-11T03:50:42.893Z,102834.63
2022-11-11T03:53:09.545Z,102842.91
2022-11-11T03:55:36.103Z,102835.59
2022-11-11T03:58:02.618Z,102845.47
2022-11-11T04:00:29.384Z,102838.03
2022-11-11T04:03:31.608Z,102834.44
2022-11-11T04:06:16.781Z,102852.09
2022-11-11T04:09:02.176Z,102846.75
2022-11-11T04:11:35.373Z,102857.31
2022-11-11T04:14:23.472Z,102865.25
2022-11-11T04:16:49.974Z,102863.31
2022-11-11T04:19:34.973Z,102866.19
2022-11-11T04:22:01.798Z,102859.88
2022-11-11T04:24:47.147Z,102870.28
2022-11-11T04:27:15.777Z,102871.06
2022-11-11T04:29:42.781Z,102876.94
2022-11-11T04:32:32.745Z,102872.53
2022-11-11T04:35:01.771Z,102872.97
2022-11-11T04:37:33.011Z,102872.50
2022-11-11T04:40:17.957Z,102874.44
2022-11-11T04:42:44.529Z,102872.63
2022-11-11T04:45:30.876Z,102852.44
2022-11-11T04:47:58.634Z,102866.75
2022-11-11T04:50:30.459Z,102865.78
2022-11-11T04:52:57.280Z,102869.50
2022-11-11T04:55:42.702Z,102864.25
2022-11-11T04:58:09.694Z,102867.94
2022-11-11T05:00:36.496Z,102872.34
2022-11-11T05:03:15.836Z,102874.97
2022-11-11T05:06:07.919Z,102870.50
2022-11-11T05:08:55.017Z,102874.09
2022-11-11T05:11:23.387Z,102891.81
2022-11-11T05:14:09.413Z,102885.25
2022-11-11T05:17:01.826Z,102892.56
2022-11-11T05:19:47.003Z,102889.31
2022-11-11T05:22:26.652Z,102892.56
2022-11-11T05:25:11.807Z,102886.44
2022-11-11T05:27:38.752Z,102882.56
2022-11-11T05:30:06.646Z,102884.28
2022-11-11T05:32:33.126Z,102880.72
2022-11-11T05:34:59.690Z,102887.06
2022-11-11T05:37:26.278Z,102877.03
2022-11-11T05:39:52.989Z,102863.00
2022-11-11T05:42:19.555Z,102881.94
2022-11-11T05:44:46.042Z,102889.06
2022-11-11T05:47:12.534Z,102874.59
2022-11-11T05:49:39.244Z,102875.38
2022-11-11T05:52:06.793Z,102864.19
2022-11-11T05:54:33.694Z,102858.31
2022-11-11T05:57:00.717Z,102854.66
2022-11-11T05:59:27.261Z,102871.41
2022-11-11T06:01:54.604Z,102868.97
2022-11-11T06:04:21.190Z,102865.22
2022-11-11T06:06:47.727Z,102868.59
2022-11-11T06:09:14.322Z,102868.41
2022-11-11T06:11:40.863Z,102852.09
2022-11-11T06:14:07.715Z,102865.88
2022-11-11T06:16:34.439Z,102867.22
2022-11-11T06:19:01.107Z,102861.13
2022-11-11T06:21:27.645Z,102876.25
2022-11-11T06:23:54.157Z,102877.84
2022-11-11T06:26:20.717Z,102879.28
2022-11-11T06:28:54.903Z,102869.41
2022-11-11T06:31:26.710Z,102858.31
2022-11-11T06:33:54.110Z,102869.03
2022-11-11T06:36:22.114Z,102881.97
2022-11-11T06:38:48.623Z,102875.88
2022-11-11T06:41:15.689Z,102898.72
2022-11-11T06:43:43.192Z,102898.72
2022-11-11T06:46:23.326Z,102898.81
2022-11-11T06:48:50.375Z,102909.03
2022-11-11T06:51:17.324Z,102913.75
2022-11-11T06:53:43.864Z,102908.09
2022-11-11T06:56:12.651Z,102916.97
2022-11-11T06:58:39.523Z,102915.56
2022-11-11T07:01:07.497Z,102919.44
2022-11-11T07:03:34.950Z,102923.38
2022-11-11T07:06:02.919Z,102926.16
2022-11-11T07:08:29.690Z,102913.19
2022-11-11T07:10:56.243Z,102927.84
2022-11-11T07:13:23.038Z,102928.28
2022-11-11T07:15:49.544Z,102921.16
2022-11-11T07:18:16.104Z,102928.66
2022-11-11T07:20:42.627Z,102929.47
2022-11-11T07:23:09.137Z,102929.38
2022-11-11T07:25:35.841Z,102930.31
2022-11-11T07:28:02.598Z,102930.69
2022-11-11T07:30:29.411Z,102925.59
2022-11-11T07:32:56.130Z,102944.97
2022-11-11T07:35:22.961Z,102933.38
2022-11-11T07:37:49.577Z,102946.72
2022-11-11T07:40:18.437Z,102955.88
2022-11-11T07:42:45.121Z,102946.00
2022-11-11T07:45:13.138Z,102959.59
2022-11-11T07:47:39.789Z,102952.13
2022-11-11T07:50:08.477Z,102970.66
2022-11-11T07:52:36.996Z,102969.47
2022-11-11T07:55:04.986Z,102956.50
2022-11-11T07:57:31.601Z,102971.03
2022-11-11T07:59:58.142Z,102963.72
2022-11-11T08:02:24.654Z,102972.31
2022-11-11T08:04:55.111Z,102976.56
2022-11-11T08:07:23.839Z,102978.84
2022-11-11T08:09:51.645Z,102961.91
2022-11-11T08:12:37.118Z,102975.38
2022-11-11T08:15:06.923Z,102985.72
2022-11-11T08:17:39.397Z,102985.72
2022-11-11T08:20:11.040Z,102988.63
2022-11-11T08:22:42.192Z,102988.28
2022-11-11T08:25:14.733Z,103003.41
2022-11-11T08:27:42.363Z,102985.16
2022-11-11T08:30:09.552Z,102992.91
2022-11-11T08:32:36.098Z,102996.09
2022-11-11T08:35:02.643Z,102991.84
2022-11-11T08:37:29.849Z,103002.59
2022-11-11T08:39:57.439Z,102992.25
2022-11-11T08:42:24.278Z,102987.84
2022-11-11T08:44:51.776Z,102988.63
2022-11-11T08:47:20.556Z,103006.69
2022-11-11T08:49:49.442Z,102992.38
2022-11-11T08:52:16.184Z,103001.78
2022-11-11T08:54:42.923Z,102995.69
2022-11-11T08:57:09.473Z,103005.59
2022-11-11T08:59:36.013Z,103009.88
2022-11-11T09:02:02.601Z,103007.31
2022-11-11T09:04:43.701Z,103015.69
2022-11-11T09:07:12.587Z,103025.09
2022-11-11T09:09:39.160Z,103016.75
2022-11-11T09:12:05.830Z,103001.16
2022-11-11T09:14:32.458Z,103015.03
2022-11-11T09:16:59.001Z,103003.69
2022-11-11T09:19:25.545Z,103004.22
2022-11-11T09:21:53.120Z,103010.06
2022-11-11T09:24:19.678Z,103022.09
2022-11-11T09:26:49.989Z,103020.06
2022-11-11T09:29:17.806Z,103027.59
2022-11-11T09:31:46.069Z,103022.88
2022-11-11T09:34:14.173Z,103030.78
2022-11-11T09:36:41.089Z,103036.84
2022-11-11T09:39:07.681Z,103032.28
2022-11-11T09:41:43.579Z,103028.91
2022-11-11T09:45:09.020Z,103033.81
2022-11-11T09:48:05.015Z,103035.44
2022-11-11T09:50:37.406Z,103029.03
2022-11-11T09:53:11.288Z,103036.50
2022-11-11T09:55:44.877Z,103038.63
2022-11-11T09:58:14.605Z,103034.97
2022-11-11T10:00:45.374Z,103027.22
2022-11-11T10:03:22.848Z,103032.72
2022-11-11T10:05:56.932Z,103020.25
2022-11-11T10:08:23.731Z,103029.00
2022-11-11T10:10:53.432Z,103032.28
2022-11-11T10:13:31.018Z,103032.97
2022-11-11T10:16:15.472Z,103028.28
2022-11-11T10:18:50.705Z,103036.28
2022-11-11T10:21:26.557Z,103030.00
2022-11-11T10:23:59.844Z,103023.00
2022-11-11T10:26:35.617Z,103030.56
2022-11-11T10:29:06.203Z,103032.00
2022-11-11T10:31:33.155Z,103021.31
2022-11-11T10:34:05.809Z,103022.38
2022-11-11T10:36:37.137Z,103025.41
2022-11-11T10:39:05.561Z,103018.78
2022-11-11T10:41:39.236Z,103038.38
2022-11-11T10:44:27.309Z,103019.41
2022-11-11T10:47:10.992Z,103017.81
2022-11-11T10:49:56.127Z,103001.16
2022-11-11T10:52:38.361Z,103000.94
2022-11-11T10:55:10.883Z,103000.28
2022-11-11T10:57:46.708Z,102996.88
2022-11-11T11:00:15.083Z,102989.88
2022-11-11T11:02:56.903Z,102993.81
2022-11-11T11:05:54.330Z,102993.31
2022-11-11T11:08:27.008Z,102974.94
2022-11-11T11:11:02.890Z,102989.13
2022-11-11T11:14:04.814Z,102979.97
2022-11-11T11:16:44.173Z,102974.47
2022-11-11T11:19:22.145Z,102958.50
2022-11-11T11:22:01.759Z,102965.00
2022-11-11T11:24:33.701Z,102956.19
2022-11-11T11:27:07.665Z,102951.16
2022-11-11T11:29:39.671Z,102958.91
2022-11-11T11:32:12.080Z,102950.19
2022-11-11T11:34:48.325Z,102955.38
2022-11-11T11:37:15.391Z,102947.69
2022-11-11T11:39:42.308Z,102932.28
2022-11-11T11:42:10.673Z,102933.72
2022-11-11T11:44:38.973Z,102934.97
2022-11-11T11:47:29.524Z,102926.84
2022-11-11T11:50:20.902Z,102920.34
2022-11-11T11:52:53.233Z,102923.94
2022-11-11T11:55:33.606Z,102913.09
2022-11-11T11:58:38.700Z,102911.63
2022-11-11T12:01:24.826Z,102920.97
2022-11-11T12:03:54.376Z,102919.31
2022-11-11T12:06:47.370Z,102916.16
2022-11-11T12:09:40.185Z,102921.81
2022-11-11T12:12:27.294Z,102914.25
2022-11-11T12:15:24.858Z,102910.88
2022-11-11T12:17:59.771Z,102909.44
2022-11-11T12:20:51.287Z,102898.06
2022-11-11T12:23:36.473Z,102910.06
2022-11-11T12:26:15.575Z,102903.09
2022-11-11T12:28:42.169Z,102901.44
2022-11-11T12:31:14.815Z,102888.09
2022-11-11T12:33:44.414Z,102888.97
2022-11-11T12:36:16.160Z,102888.97
2022-11-11T12:38:51.376Z,102878.97
2022-11-11T12:41:34.340Z,102875.91
2022-11-11T12:44:12.752Z,102899.22
2022-11-11T12:47:05.082Z,102902.84
2022-11-11T12:49:51.445Z,102901.91
2022-11-11T12:52:54.499Z,102909.31
2022-11-11T12:55:59.889Z,102905.56
2022-11-11T12:58:44.609Z,102901.25
2022-11-11T13:01:18.746Z,102894.19
2022-11-11T13:04:03.440Z,102898.50
2022-11-11T13:06:41.954Z,102895.69
2022-11-11T13:09:08.412Z,102893.63
2022-11-11T13:11:53.187Z,102895.47
2022-11-11T13:14:57.315Z,102887.13
2022-11-11T13:17:24.634Z,102883.91
2022-11-11T13:20:05.519Z,102879.00
2022-11-11T13:22:33.201Z,102884.59
2022-11-11T13:25:07.783Z,102873.38
2022-11-11T13:27:50.640Z,102874.84
2022-11-11T13:30:23.161Z,102876.13
2022-11-11T13:33:00.287Z,102880.19
2022-11-11T13:35:54.343Z,102878.69
2022-11-11T13:38:28.626Z,102893.22
2022-11-11T13:40:58.531Z,102889.66
2022-11-11T13:43:34.324Z,102892.44
2022-11-11T13:46:03.450Z,102886.66
2022-11-11T13:48:38.654Z,102895.25
2022-11-11T13:51:13.431Z,102889.09
2022-11-11T13:53:42.059Z,102892.56
2022-11-11T13:56:10.803Z,102893.84
2022-11-11T13:58:41.537Z,102891.16
2022-11-11T14:01:11.020Z,102891.03
2022-11-11T14:03:43.360Z,102893.06
2022-11-11T14:06:15.779Z,102882.84
2022-11-11T14:08:50.358Z,102886.19
2022-11-11T14:11:26.339Z,102886.00
2022-11-11T14:13:54.850Z,102882.03
2022-11-11T14:16:36.477Z,102880.53
2022-11-11T14:19:21.296Z,102881.47
2022-11-11T14:21:59.028Z,102874.63
2022-11-11T14:24:37.281Z,102879.72
2022-11-11T14:27:26.155Z,102870.94
2022-11-11T14:29:54.966Z,102879.50
2022-11-11T14:33:08.954Z,102879.94
2022-11-11T14:36:24.995Z,102874.03
2022-11-11T14:39:04.461Z,102871.13
2022-11-11T14:41:51.707Z,102865.22
2022-11-11T14:44:27.497Z,102877.94
2022-11-11T14:47:34.167Z,102879.44
2022-11-11T14:50:01.612Z,102870.41
2022-11-11T14:52:44.954Z,102875.28
2022-11-11T14:55:19.275Z,102870.84
2022-11-11T14:58:05.796Z,102881.09
2022-11-11T15:00:43.794Z,102876.34
2022-11-11T15:03:21.074Z,102886.53
2022-11-11T15:05:54.568Z,102877.03
2022-11-11T15:08:26.380Z,102881.41
2022-11-11T15:11:15.873Z,102879.63
2022-11-11T15:14:04.193Z,102887.69
2022-11-11T15:17:00.203Z,102886.25
2022-11-11T15:20:18.899Z,102886.78
2022-11-11T15:23:11.660Z,102884.44
2022-11-11T15:25:45.271Z,102896.00
2022-11-11T15:28:36.108Z,102894.25
2022-11-11T15:31:46.144Z,102900.44
2022-11-11T15:34:40.802Z,102892.69
2022-11-11T15:37:15.298Z,102893.50
2022-11-11T15:39:51.251Z,102892.31
2022-11-11T15:42:26.780Z,102890.69
2022-11-11T15:44:53.515Z,102894.50
2022-11-11T15:47:24.628Z,102886.59
2022-11-11T15:49:51.819Z,102893.09
2022-11-11T15:52:31.825Z,102894.13
2022-11-11T15:55:00.005Z,102891.22
2022-11-11T15:57:30.940Z,102901.31
2022-11-11T15:59:59.624Z,102898.53
2022-11-11T16:02:31.627Z,102911.44
2022-11-11T16:05:07.288Z,102911.47
2022-11-11T16:07:58.107Z,102911.31
2022-11-11T16:10:32.225Z,102914.28
2022-11-11T16:13:04.649Z,102907.97
2022-11-11T16:15:48.102Z,102915.31
2022-11-11T16:18:27.780Z,102918.25
2022-11-11T16:21:00.454Z,102921.00
2022-11-11T16:23:28.460Z,102922.19
2022-11-11T16:25:58.431Z,102918.91
2022-11-11T16:28:27.698Z,102932.75
2022-11-11T16:30:54.220Z,102924.28
2022-11-11T16:33:33.662Z,102915.53
2022-11-11T16:36:11.186Z,102929.47
2022-11-11T16:38:44.019Z,102936.34
2022-11-11T16:41:34.065Z,102933.91
2022-11-11T16:44:00.605Z,102937.19
2022-11-11T16:46:35.980Z,102940.09
2022-11-11T16:49:29.233Z,102943.06
2022-11-11T16:51:56.335Z,102940.94
2022-11-11T16:54:27.189Z,102944.22
2022-11-11T16:56:57.304Z,102952.34
2022-11-11T16:59:39.338Z,102947.28
2022-11-11T17:02:16.537Z,102961.09
2022-11-11T17:04:48.347Z,102966.63
2022-11-11T17:07:37.274Z,102964.53
2022-11-11T17:10:09.623Z,102956.03
2022-11-11T17:12:37.827Z,102954.59
2022-11-11T17:15:06.341Z,102965.00
2022-11-11T17:17:33.184Z,102966.31
2022-11-11T17:20:24.306Z,102975.75
2022-11-11T17:22:56.614Z,102974.47
2022-11-11T17:25:23.136Z,102982.25
2022-11-11T17:27:49.747Z,102984.53
2022-11-11T17:30:16.453Z,102969.72
2022-11-11T17:32:42.961Z,102979.00
2022-11-11T17:35:11.672Z,102980.63
2022-11-11T17:37:39.060Z,102976.22
2022-11-11T17:40:10.338Z,102976.56
2022-11-11T17:42:37.404Z,102974.63
2022-11-11T17:45:05.273Z,102967.75
2022-11-11T17:47:39.237Z,102989.22
2022-11-11T17:50:09.172Z,102987.28
2022-11-11T17:52:35.692Z,102991.81
2022-11-11T17:55:02.271Z,102982.88
2022-11-11T17:57:28.808Z,102983.84
2022-11-11T17:59:55.318Z,102982.66
2022-11-11T18:02:21.877Z,102986.75
2022-11-11T18:04:48.645Z,102991.75
2022-11-11T18:07:15.209Z,102987.06
2022-11-11T18:09:41.787Z,102989.34
2022-11-11T18:12:08.353Z,102997.94
2022-11-11T18:14:34.896Z,102993.06
2022-11-11T18:17:01.442Z,102995.06
2022-11-11T18:19:27.990Z,102985.13
2022-11-11T18:21:54.487Z,102985.78
2022-11-11T18:24:20.962Z,102982.66
2022-11-11T18:26:47.623Z,102977.78
2022-11-11T18:29:14.194Z,102988.56
2022-11-11T18:31:40.787Z,102993.91
2022-11-11T18:34:07.351Z,102984.28
2022-11-11T18:36:33.863Z,102984.13
2022-11-11T18:39:00.482Z,102997.13
2022-11-11T18:41:27.099Z,102992.88
2022-11-11T18:43:54.258Z,102994.34
2022-11-11T18:46:26.366Z,102987.81
2022-11-11T18:48:58.847Z,102977.56
2022-11-11T18:51:26.796Z,102984.75
2022-11-11T18:53:53.326Z,102980.28
2022-11-11T18:56:22.147Z,102978.66
2022-11-11T18:58:53.882Z,102979.47
2022-11-11T19:01:23.531Z,102988.88
2022-11-11T19:03:52.202Z,102990.19
2022-11-11T19:06:20.818Z,102987.81
2022-11-11T19:08:48.729Z,102980.28
2022-11-11T19:11:15.231Z,102984.03
2022-11-11T19:13:41.834Z,102989.72
2022-11-11T19:16:15.064Z,102996.97
2022-11-11T19:18:42.420Z,102999.91
2022-11-11T19:21:11.327Z,102996.63
2022-11-11T19:23:38.173Z,102990.09
2022-11-11T19:26:05.140Z,103002.28
2022-11-11T19:28:31.843Z,102997.53
2022-11-11T19:31:07.050Z,103001.72
2022-11-11T19:33:35.895Z,103005.25
2022-11-11T19:36:05.550Z,103000.97
2022-11-11T19:38:32.626Z,103010.72
2022-11-11T19:41:09.322Z,103014.31
2022-11-11T19:43:36.723Z,103014.13
2022-11-11T19:46:04.824Z,103025.16
2022-11-11T19:48:31.912Z,103023.31
2022-11-11T19:51:06.683Z,103025.59
2022-11-11T19:53:33.493Z,103022.09
2022-11-11T19:56:06.124Z,103025.16
2022-11-11T19:58:32.950Z,103022.72
2022-11-11T20:01:08.451Z,103030.47
2022-11-11T20:03:35.933Z,103043.25
2022-11-11T20:06:04.865Z,103047.16
2022-11-11T20:08:33.008Z,103046.63
2022-11-11T20:11:09.282Z,103042.06
2022-11-11T20:13:39.915Z,103048.00
2022-11-11T20:16:09.588Z,103055.56
2022-11-11T20:18:36.128Z,103051.19
2022-11-11T20:21:05.219Z,103070.38
2022-11-11T20:23:35.491Z,103085.69
2022-11-11T20:26:05.765Z,103083.47
2022-11-11T20:28:32.649Z,103073.16
2022-11-11T20:30:59.290Z,103085.56
2022-11-11T20:33:26.149Z,103087.31
2022-11-11T20:35:52.983Z,103093.22
2022-11-11T20:38:19.475Z,103081.50
2022-11-11T20:40:45.954Z,103092.47
2022-11-11T20:43:12.479Z,103087.34
2022-11-11T20:45:38.962Z,103092.25
2022-11-11T20:48:08.480Z,103099.78
2022-11-11T20:50:34.978Z,103113.09
2022-11-11T20:53:01.441Z,103108.16
2022-11-11T20:55:28.000Z,103114.25
2022-11-11T20:57:54.493Z,103133.22
2022-11-11T21:00:21.091Z,103138.91
2022-11-11T21:02:47.588Z,103120.50
2022-11-11T21:05:14.130Z,103127.09
2022-11-11T21:07:40.617Z,103129.63
2022-11-11T21:10:07.202Z,103130.44
2022-11-11T21:12:33.769Z,103132.06
2022-11-11T21:15:00.299Z,103131.16
2022-11-11T21:17:26.834Z,103126.25
2022-11-11T21:19:53.374Z,103115.44
2022-11-11T21:22:19.860Z,103119.03
2022-11-11T21:24:46.428Z,103126.69
2022-11-11T21:27:13.160Z,103132.25
2022-11-11T21:29:39.941Z,103136.56
2022-11-11T21:32:06.783Z,103143.41
2022-11-11T21:34:33.263Z,103144.31
2022-11-11T21:36:59.843Z,103137.44
2022-11-11T21:39:26.365Z,103139.38
2022-11-11T21:41:52.911Z,103129.47
2022-11-11T21:44:19.365Z,103132.91
2022-11-11T21:46:45.895Z,103135.78
2022-11-11T21:49:12.352Z,103142.38
2022-11-11T21:51:38.898Z,103138.63
2022-11-11T21:54:08.940Z,103133.19
2022-11-11T21:56:37.432Z,103129.47
2022-11-11T21:59:06.165Z,103142.34
2022-11-11T22:01:36.174Z,103144.66
2022-11-11T22:04:08.965Z,103136.28
2022-11-11T22:06:35.987Z,103134.13
2022-11-11T22:09:04.092Z,103131.91
2022-11-11T22:11:33.381Z,103139.31
2022-11-11T22:14:01.546Z,103131.53
2022-11-11T22:16:36.551Z,103129.91
2022-11-11T22:19:14.856Z,103131.63
2022-11-11T22:21:43.073Z,103134.13
2022-11-11T22:24:11.018Z,103137.75
2022-11-11T22:26:39.873Z,103137.94
2022-11-11T22:29:08.521Z,103125.81
2022-11-11T22:31:37.310Z,103124.78
2022-11-11T22:34:06.368Z,103132.19
2022-11-11T22:36:34.400Z,103136.94
2022-11-11T22:39:01.231Z,103140.00
2022-11-11T22:41:31.000Z,103140.22
2022-11-11T22:44:00.667Z,103130.03
2022-11-11T22:46:28.798Z,103142.34
2022-11-11T22:49:04.068Z,103137.56
2022-11-11T22:51:32.020Z,103146.84
2022-11-11T22:54:01.402Z,103140.53
2022-11-11T22:56:28.692Z,103145.22
2022-11-11T22:58:56.539Z,103152.28
2022-11-11T23:01:30.546Z,103146.13
2022-11-11T23:03:59.919Z,103129.81
2022-11-11T23:06:38.882Z,103140.75
2022-11-11T23:09:05.767Z,103125.63
2022-11-11T23:11:34.528Z,103124.84
2022-11-11T23:14:05.239Z,103142.34
2022-11-11T23:16:32.222Z,103127.16
2022-11-11T23:19:00.219Z,103147.16
2022-11-11T23:21:28.605Z,103145.44
2022-11-11T23:23:55.871Z,103141.16
2022-11-11T23:26:25.801Z,103134.00
2022-11-11T23:28:52.681Z,103124.56
2022-11-11T23:31:21.917Z,103140.81
2022-11-11T23:33:50.801Z,103138.97
2022-11-11T23:36:19.789Z,103131.84
2022-11-11T23:38:47.881Z,103139.53
2022-11-11T23:41:14.449Z,103141.72
2022-11-11T23:43:41.076Z,103135.72
2022-11-11T23:46:08.690Z,103124.84
2022-11-11T23:48:35.777Z,103142.84
2022-11-11T23:51:02.795Z,103129.63
2022-11-11T23:53:30.097Z,103131.41
2022-11-11T23:55:57.174Z,103130.53
2022-11-11T23:58:24.385Z,103130.16
